PWSweather.com
Personal Weather Stations
Station Observations
KJ4AJP
Beautiful Downtown Gardner, Martin, TN 38237

Beautiful Downtown GardnerMartin, TN 38237

Lat: 36.358, Lon: -88.8994

Elevation: 384.3

Station Type: TP1080WC

http://weather.mambm.com/

High Low Average
Temperature 56.8°F13.8°C 27.3°F-2.6°C 43.8°F6.6°C
Dew Point 56.6°F13.7°C 27.1°F-2.7°C 43.5°F6.4°C
Winds 10.7 mph 17.2 kmh Calm Calm 4.0 mph WSW6.4 kmh WSW
Wind Gusts 24.4 mph39.3 kmh 3.8 mph6.1 kmh 12.0 mph19.3 kmh
Humidity 99% 99% 99%
Pressure 30.05 in1017.6 mb 29.46 in997.6 mb -
Precipitation 0.91 in23.1 mm - -
Hour Temp Dew Point Humidity Winds Wind Gusts Pressure Precip Precip Rate Daily Precip Total
12:00 AM 49.6°F9.8°C 49.4°F9.7°C 99% 2.2 mph SE3.5 kmh SE 8.3 mph13.4 kmh 29.84 in1010.5 mb 0.22 in5.6 mm 0.00 in0.0 mm 0.22 in5.6 mm
12:15 AM 50.2°F10.1°C 49.9°F9.9°C 99% 7.6 mph SE12.2 kmh SE 13.0 mph20.9 kmh 29.79 in1008.8 mb 0.30 in7.6 mm 0.32 in8.1 mm 0.08 in2.0 mm
12:30 AM 50.7°F10.4°C 50.5°F10.3°C 99% 4.5 mph SE7.2 kmh SE 24.4 mph39.3 kmh 29.78 in1008.5 mb 0.28 in7.1 mm 0.00 in0.0 mm 0.13 in3.3 mm
12:45 AM 50.9°F10.5°C 50.6°F10.3°C 99% 10.7 mph SE17.2 kmh SE 18.3 mph29.5 kmh 29.75 in1007.5 mb 0.21 in5.3 mm 0.00 in0.0 mm 0.13 in3.3 mm
01:00 AM 51.1°F10.6°C 50.8°F10.4°C 99% 6.9 mph SE11.1 kmh SE 17.4 mph28.0 kmh 29.74 in1007.1 mb 0.13 in3.3 mm 0.00 in0.0 mm 0.13 in3.3 mm
01:15 AM 51.3°F10.7°C 51.0°F10.6°C 99% 9.2 mph ESE14.8 kmh ESE 19.0 mph30.6 kmh 29.73 in1006.8 mb 0.06 in1.5 mm 0.00 in0.0 mm 0.14 in3.6 mm
01:30 AM 51.4°F10.8°C 51.2°F10.7°C 99% 3.8 mph SSE6.1 kmh SSE 15.2 mph24.5 kmh 29.72 in1006.4 mb 0.01 in0.3 mm 0.00 in0.0 mm 0.14 in3.6 mm
01:45 AM 51.8°F11.0°C 51.5°F10.8°C 99% 6.0 mph SE9.7 kmh SE 14.5 mph23.3 kmh 29.72 in1006.4 mb 0.01 in0.3 mm 0.00 in0.0 mm 0.14 in3.6 mm
02:00 AM 52.2°F11.2°C 51.9°F11.1°C 99% 3.1 mph SSE5.0 kmh SSE 10.7 mph17.2 kmh 29.72 in1006.4 mb 0.05 in1.3 mm 0.05 in1.3 mm 0.18 in4.6 mm
02:15 AM 52.5°F11.4°C 52.3°F11.3°C 99% 3.8 mph SE6.1 kmh SE 9.8 mph15.8 kmh 29.70 in1005.8 mb 0.08 in2.0 mm 0.12 in3.0 mm 0.22 in5.6 mm
02:30 AM 52.7°F11.5°C 52.4°F11.3°C 99% 4.5 mph SE7.2 kmh SE 12.1 mph19.5 kmh 29.69 in1005.4 mb 0.12 in3.0 mm 0.16 in4.1 mm 0.26 in6.6 mm
02:45 AM 53.1°F11.7°C 52.8°F11.6°C 99% 6.0 mph SE9.7 kmh SE 10.7 mph17.2 kmh 29.68 in1005.1 mb 0.15 in3.8 mm 0.12 in3.0 mm 0.30 in7.6 mm
03:00 AM 53.4°F11.9°C 53.2°F11.8°C 99% 4.5 mph SE7.2 kmh SE 10.7 mph17.2 kmh 29.67 in1004.7 mb 0.19 in4.8 mm 0.05 in1.3 mm 0.37 in9.4 mm
03:15 AM 53.8°F12.1°C 53.5°F11.9°C 99% 4.5 mph ESE7.2 kmh ESE 9.8 mph15.8 kmh 29.66 in1004.4 mb 0.17 in4.3 mm 0.00 in0.0 mm 0.39 in9.9 mm
03:30 AM 53.8°F12.1°C 53.5°F11.9°C 99% 9.8 mph E15.8 kmh E 14.5 mph23.3 kmh 29.64 in1003.7 mb 0.13 in3.3 mm 0.00 in0.0 mm 0.39 in9.9 mm
03:45 AM 54.1°F12.3°C 53.9°F12.2°C 99% 9.2 mph S14.8 kmh S 20.6 mph33.2 kmh 29.65 in1004.1 mb 0.09 in2.3 mm 0.00 in0.0 mm 0.39 in9.9 mm
04:00 AM 54.3°F12.4°C 54.1°F12.3°C 99% 3.1 mph S5.0 kmh S 13.6 mph21.9 kmh 29.65 in1004.1 mb 0.02 in0.5 mm 0.00 in0.0 mm 0.39 in9.9 mm
04:15 AM 54.1°F12.3°C 53.9°F12.2°C 99% 2.2 mph SSE3.5 kmh SSE 7.6 mph12.2 kmh 29.64 in1003.7 mb 0.00 in0.0 mm 0.00 in0.0 mm 0.39 in9.9 mm
04:30 AM 54.1°F12.3°C 53.9°F12.2°C 99% 3.8 mph SSE6.1 kmh SSE 8.3 mph13.4 kmh 29.63 in1003.4 mb 0.00 in0.0 mm 0.00 in0.0 mm 0.39 in9.9 mm
04:45 AM 54.1°F12.3°C 53.9°F12.2°C 99% 1.6 mph SE2.6 kmh SE 6.0 mph9.7 kmh 29.62 in1003.0 mb 0.00 in0.0 mm 0.00 in0.0 mm 0.39 in9.9 mm
05:00 AM 54.0°F12.2°C 53.7°F12.1°C 99% 2.2 mph SE3.5 kmh SE 8.3 mph13.4 kmh 29.61 in1002.7 mb 0.01 in0.3 mm 0.01 in0.3 mm 0.40 in10.2 mm
05:15 AM 54.0°F12.2°C 53.7°F12.1°C 99% 3.1 mph SSE5.0 kmh SSE 8.3 mph13.4 kmh 29.60 in1002.4 mb 0.01 in0.3 mm 0.00 in0.0 mm 0.40 in10.2 mm
05:30 AM 54.0°F12.2°C 53.7°F12.1°C 99% 1.6 mph SE2.6 kmh SE 9.2 mph14.8 kmh 29.59 in1002.0 mb 0.02 in0.5 mm 0.04 in1.0 mm 0.41 in10.4 mm
05:45 AM 54.0°F12.2°C 53.7°F12.1°C 99% 2.2 mph SE3.5 kmh SE 9.2 mph14.8 kmh 29.59 in1002.0 mb 0.04 in1.0 mm 0.08 in2.0 mm 0.43 in10.9 mm
06:00 AM 54.1°F12.3°C 53.9°F12.2°C 99% 4.5 mph SE7.2 kmh SE 6.9 mph11.1 kmh 29.58 in1001.7 mb 0.04 in1.0 mm 0.00 in0.0 mm 0.44 in11.2 mm
06:15 AM 54.1°F12.3°C 53.9°F12.2°C 99% 1.6 mph SE2.6 kmh SE 9.8 mph15.8 kmh 29.58 in1001.7 mb 0.04 in1.0 mm 0.00 in0.0 mm 0.44 in11.2 mm
06:30 AM 54.3°F12.4°C 54.1°F12.3°C 99% 5.4 mph SSE8.7 kmh SSE 9.8 mph15.8 kmh 29.58 in1001.7 mb 0.07 in1.8 mm 0.12 in3.0 mm 0.48 in12.2 mm
06:45 AM 54.3°F12.4°C 54.1°F12.3°C 99% 3.1 mph S5.0 kmh S 10.7 mph17.2 kmh 29.58 in1001.7 mb 0.08 in2.0 mm 0.04 in1.0 mm 0.51 in13.0 mm
07:00 AM 54.5°F12.5°C 54.2°F12.3°C 99% 6.0 mph SW9.7 kmh SW 9.8 mph15.8 kmh 29.60 in1002.4 mb 0.11 in2.8 mm 0.04 in1.0 mm 0.54 in13.7 mm
07:15 AM 54.7°F12.6°C 54.4°F12.4°C 99% 4.5 mph SSW7.2 kmh SSW 9.2 mph14.8 kmh 29.61 in1002.7 mb 0.14 in3.6 mm 0.12 in3.0 mm 0.58 in14.7 mm
07:30 AM 54.7°F12.6°C 54.4°F12.4°C 99% 3.1 mph SE5.0 kmh SE 6.0 mph9.7 kmh 29.59 in1002.0 mb 0.11 in2.8 mm 0.00 in0.0 mm 0.59 in15.0 mm
07:45 AM 54.5°F12.5°C 54.2°F12.3°C 99% 3.1 mph SE5.0 kmh SE 6.9 mph11.1 kmh 29.58 in1001.7 mb 0.09 in2.3 mm 0.00 in0.0 mm 0.60 in15.2 mm
08:00 AM 54.9°F12.7°C 54.6°F12.6°C 99% 5.4 mph ESE8.7 kmh ESE 10.7 mph17.2 kmh 29.58 in1001.7 mb 0.07 in1.8 mm 0.00 in0.0 mm 0.61 in15.5 mm
08:15 AM 54.7°F12.6°C 54.4°F12.4°C 99% 1.6 mph SE2.6 kmh SE 9.2 mph14.8 kmh 29.59 in1002.0 mb 0.04 in1.0 mm 0.00 in0.0 mm 0.61 in15.5 mm
08:30 AM 54.9°F12.7°C 54.6°F12.6°C 99% 6.0 mph SE9.7 kmh SE 11.4 mph18.3 kmh 29.57 in1001.4 mb 0.02 in0.5 mm 0.00 in0.0 mm 0.61 in15.5 mm
08:45 AM 55.0°F12.8°C 54.8°F12.7°C 99% 5.4 mph SE8.7 kmh SE 8.3 mph13.4 kmh 29.57 in1001.4 mb 0.02 in0.5 mm 0.00 in0.0 mm 0.63 in16.0 mm
09:00 AM 55.0°F12.8°C 54.8°F12.7°C 99% Calm Calm 7.6 mph12.2 kmh 29.58 in1001.7 mb 0.02 in0.5 mm 0.00 in0.0 mm 0.64 in16.3 mm
09:15 AM 55.4°F13.0°C 55.1°F12.8°C 99% 3.8 mph SSE6.1 kmh SSE 8.3 mph13.4 kmh 29.57 in1001.4 mb 0.02 in0.5 mm 0.00 in0.0 mm 0.64 in16.3 mm
09:30 AM 55.8°F13.2°C 55.5°F13.1°C 99% 1.6 mph S2.6 kmh S 6.9 mph11.1 kmh 29.56 in1001.0 mb 0.02 in0.5 mm 0.00 in0.0 mm 0.64 in16.3 mm
09:45 AM 55.9°F13.3°C 55.7°F13.2°C 99% 2.2 mph S3.5 kmh S 5.4 mph8.7 kmh 29.56 in1001.0 mb 0.01 in0.3 mm 0.00 in0.0 mm 0.64 in16.3 mm
10:00 AM 56.5°F13.6°C 56.2°F13.4°C 99% 1.6 mph S2.6 kmh S 3.8 mph6.1 kmh 29.55 in1000.7 mb 0.00 in0.0 mm 0.00 in0.0 mm 0.64 in16.3 mm
10:15 AM 56.8°F13.8°C 56.6°F13.7°C 99% 0.7 mph SSW1.1 kmh SSW 3.8 mph6.1 kmh 29.56 in1001.0 mb 0.00 in0.0 mm 0.00 in0.0 mm 0.64 in16.3 mm
10:30 AM 56.8°F13.8°C 56.6°F13.7°C 99% 3.8 mph SW6.1 kmh SW 6.9 mph11.1 kmh 29.55 in1000.7 mb 0.00 in0.0 mm 0.00 in0.0 mm 0.64 in16.3 mm
10:45 AM 53.6°F12.0°C 53.3°F11.8°C 99% 2.2 mph NW3.5 kmh NW 16.8 mph27.0 kmh 29.57 in1001.4 mb 0.00 in0.0 mm 0.00 in0.0 mm 0.64 in16.3 mm
11:00 AM 50.0°F10.0°C 49.7°F9.8°C 99% 3.1 mph NW5.0 kmh NW 11.4 mph18.3 kmh 29.57 in1001.4 mb 0.02 in0.5 mm 0.03 in0.8 mm 0.66 in16.8 mm
11:15 AM 47.5°F8.6°C 47.2°F8.4°C 99% 3.8 mph N6.1 kmh N 13.0 mph20.9 kmh 29.51 in999.3 mb 0.04 in1.0 mm 0.08 in2.0 mm 0.67 in17.0 mm
11:30 AM 46.9°F8.3°C 46.7°F8.2°C 99% 5.4 mph NE8.7 kmh NE 20.6 mph33.2 kmh 29.46 in997.6 mb 0.04 in1.0 mm 0.00 in0.0 mm 0.67 in17.0 mm
11:45 AM 46.9°F8.3°C 46.7°F8.2°C 99% 3.8 mph NNW6.1 kmh NNW 10.7 mph17.2 kmh 29.52 in999.7 mb 0.04 in1.0 mm 0.00 in0.0 mm 0.67 in17.0 mm
12:00 PM 46.8°F8.2°C 46.5°F8.1°C 99% 3.1 mph NW5.0 kmh NW 9.8 mph15.8 kmh 29.53 in1000.0 mb 0.01 in0.3 mm 0.00 in0.0 mm 0.67 in17.0 mm
12:15 PM 46.2°F7.9°C 46.0°F7.8°C 99% 4.5 mph NW7.2 kmh NW 10.7 mph17.2 kmh 29.53 in1000.0 mb 0.00 in0.0 mm 0.00 in0.0 mm 0.67 in17.0 mm
12:30 PM 45.7°F7.6°C 45.4°F7.4°C 99% 4.5 mph NNW7.2 kmh NNW 15.9 mph25.6 kmh 29.51 in999.3 mb 0.00 in0.0 mm 0.00 in0.0 mm 0.67 in17.0 mm
12:45 PM 45.3°F7.4°C 45.1°F7.3°C 99% 2.2 mph NNW3.5 kmh NNW 15.9 mph25.6 kmh 29.50 in999.0 mb 0.00 in0.0 mm 0.00 in0.0 mm 0.67 in17.0 mm
01:00 PM 45.0°F7.2°C 44.7°F7.1°C 99% 8.3 mph NNW13.4 kmh NNW 13.0 mph20.9 kmh 29.50 in999.0 mb 0.00 in0.0 mm 0.00 in0.0 mm 0.67 in17.0 mm
01:15 PM 44.2°F6.8°C 44.0°F6.7°C 99% 4.5 mph NNW7.2 kmh NNW 13.0 mph20.9 kmh 29.56 in1001.0 mb 0.01 in0.3 mm 0.04 in1.0 mm 0.69 in17.5 mm
01:30 PM 43.3°F6.3°C 43.1°F6.2°C 99% 4.5 mph NW7.2 kmh NW 13.0 mph20.9 kmh 29.55 in1000.7 mb 0.02 in0.5 mm 0.04 in1.0 mm 0.70 in17.8 mm
01:45 PM 42.3°F5.7°C 42.0°F5.6°C 99% 5.4 mph NW8.7 kmh NW 15.9 mph25.6 kmh 29.55 in1000.7 mb 0.06 in1.5 mm 0.16 in4.1 mm 0.73 in18.5 mm
02:00 PM 41.2°F5.1°C 40.9°F4.9°C 99% 4.5 mph NW7.2 kmh NW 11.4 mph18.3 kmh 29.57 in1001.4 mb 0.09 in2.3 mm 0.04 in1.0 mm 0.77 in19.6 mm
02:15 PM 40.6°F4.8°C 40.4°F4.7°C 99% 6.0 mph NW9.7 kmh NW 12.1 mph19.5 kmh 29.57 in1001.4 mb 0.13 in3.3 mm 0.16 in4.1 mm 0.81 in20.6 mm
02:30 PM 40.1°F4.5°C 39.8°F4.3°C 99% 4.5 mph NNW7.2 kmh NNW 10.7 mph17.2 kmh 29.55 in1000.7 mb 0.18 in4.6 mm 0.20 in5.1 mm 0.87 in22.1 mm
02:45 PM 39.9°F4.4°C 39.7°F4.3°C 99% 5.4 mph NNW8.7 kmh NNW 19.0 mph30.6 kmh 29.56 in1001.0 mb 0.15 in3.8 mm 0.00 in0.0 mm 0.89 in22.6 mm
03:00 PM 39.7°F4.3°C 39.5°F4.2°C 99% 6.0 mph NNW9.7 kmh NNW 12.1 mph19.5 kmh 29.57 in1001.4 mb 0.12 in3.0 mm 0.00 in0.0 mm 0.89 in22.6 mm
03:15 PM 39.4°F4.1°C 39.1°F3.9°C 99% 3.8 mph NW6.1 kmh NW 15.2 mph24.5 kmh 29.57 in1001.4 mb 0.08 in2.0 mm 0.00 in0.0 mm 0.90 in22.9 mm
03:30 PM 39.0°F3.9°C 38.8°F3.8°C 99% 4.5 mph NNW7.2 kmh NNW 13.0 mph20.9 kmh 29.58 in1001.7 mb 0.02 in0.5 mm 0.00 in0.0 mm 0.90 in22.9 mm
03:45 PM 38.7°F3.7°C 38.4°F3.6°C 99% 3.8 mph NW6.1 kmh NW 8.3 mph13.4 kmh 29.61 in1002.7 mb 0.02 in0.5 mm 0.00 in0.0 mm 0.91 in23.1 mm
04:00 PM 37.2°F2.9°C 37.0°F2.8°C 99% 4.5 mph NW7.2 kmh NW 9.2 mph14.8 kmh 29.64 in1003.7 mb 0.02 in0.5 mm 0.00 in0.0 mm 0.91 in23.1 mm
04:15 PM 35.8°F2.1°C 35.5°F1.9°C 99% 9.2 mph NW14.8 kmh NW 15.2 mph24.5 kmh 29.67 in1004.7 mb 0.01 in0.3 mm 0.00 in0.0 mm 0.91 in23.1 mm
04:30 PM 34.5°F1.4°C 34.3°F1.3°C 99% 6.0 mph NW9.7 kmh NW 14.5 mph23.3 kmh 29.68 in1005.1 mb 0.01 in0.3 mm 0.00 in0.0 mm 0.91 in23.1 mm
04:45 PM 33.6°F0.9°C 33.4°F0.8°C 99% 4.5 mph NNW7.2 kmh NNW 13.0 mph20.9 kmh 29.70 in1005.8 mb 0.00 in0.0 mm 0.00 in0.0 mm 0.91 in23.1 mm
05:00 PM 33.1°F0.6°C 32.8°F0.4°C 99% 3.1 mph NNW5.0 kmh NNW 11.4 mph18.3 kmh 29.70 in1005.8 mb 0.00 in0.0 mm 0.00 in0.0 mm 0.91 in23.1 mm
05:15 PM 32.7°F0.4°C 32.5°F0.3°C 99% 3.1 mph NNW5.0 kmh NNW 10.7 mph17.2 kmh 29.73 in1006.8 mb 0.00 in0.0 mm 0.00 in0.0 mm 0.91 in23.1 mm
05:30 PM 32.2°F0.1°C 31.9°F-0.1°C 99% 5.4 mph NW8.7 kmh NW 9.8 mph15.8 kmh 29.74 in1007.1 mb 0.00 in0.0 mm 0.00 in0.0 mm 0.91 in23.1 mm
05:45 PM 31.6°F-0.2°C 31.4°F-0.3°C 99% 4.5 mph NNW7.2 kmh NNW 11.4 mph18.3 kmh 29.75 in1007.5 mb 0.00 in0.0 mm 0.00 in0.0 mm 0.91 in23.1 mm
06:00 PM 31.3°F-0.4°C 31.0°F-0.6°C 99% 5.4 mph NW8.7 kmh NW 15.2 mph24.5 kmh 29.77 in1008.1 mb 0.00 in0.0 mm 0.00 in0.0 mm 0.91 in23.1 mm
06:15 PM 30.9°F-0.6°C 30.7°F-0.7°C 99% 4.5 mph NW7.2 kmh NW 11.4 mph18.3 kmh 29.78 in1008.5 mb 0.00 in0.0 mm 0.00 in0.0 mm 0.91 in23.1 mm
06:30 PM 30.7°F-0.7°C 30.5°F-0.8°C 99% 4.5 mph NNW7.2 kmh NNW 15.9 mph25.6 kmh 29.80 in1009.1 mb 0.00 in0.0 mm 0.00 in0.0 mm 0.91 in23.1 mm
06:45 PM 30.6°F-0.8°C 30.3°F-0.9°C 99% 3.1 mph NW5.0 kmh NW 11.4 mph18.3 kmh 29.81 in1009.5 mb 0.00 in0.0 mm 0.00 in0.0 mm 0.91 in23.1 mm
07:00 PM 30.6°F-0.8°C 30.3°F-0.9°C 99% 3.1 mph NW5.0 kmh NW 9.8 mph15.8 kmh 29.82 in1009.8 mb 0.00 in0.0 mm 0.00 in0.0 mm 0.91 in23.1 mm
07:15 PM 30.6°F-0.8°C 30.3°F-0.9°C 99% 3.1 mph NNW5.0 kmh NNW 9.8 mph15.8 kmh 29.84 in1010.5 mb 0.00 in0.0 mm 0.00 in0.0 mm 0.91 in23.1 mm
07:30 PM 30.0°F-1.1°C 29.8°F-1.2°C 99% 3.8 mph NNW6.1 kmh NNW 13.6 mph21.9 kmh 29.85 in1010.8 mb 0.00 in0.0 mm 0.00 in0.0 mm 0.91 in23.1 mm
07:45 PM 29.8°F-1.2°C 29.6°F-1.3°C 99% 3.1 mph NW5.0 kmh NW 9.2 mph14.8 kmh 29.86 in1011.2 mb 0.00 in0.0 mm 0.00 in0.0 mm 0.91 in23.1 mm
08:00 PM 29.5°F-1.4°C 29.2°F-1.6°C 99% 3.8 mph NW6.1 kmh NW 9.8 mph15.8 kmh 29.87 in1011.5 mb 0.00 in0.0 mm 0.00 in0.0 mm 0.91 in23.1 mm
08:15 PM 29.3°F-1.5°C 29.1°F-1.6°C 99% 3.1 mph NW5.0 kmh NW 8.3 mph13.4 kmh 29.88 in1011.9 mb 0.00 in0.0 mm 0.00 in0.0 mm 0.91 in23.1 mm
08:30 PM 29.1°F-1.6°C 28.9°F-1.7°C 99% 3.8 mph NNW6.1 kmh NNW 13.0 mph20.9 kmh 29.89 in1012.2 mb 0.00 in0.0 mm 0.00 in0.0 mm 0.91 in23.1 mm
08:45 PM 28.8°F-1.8°C 28.5°F-1.9°C 99% 4.5 mph NW7.2 kmh NW 12.1 mph19.5 kmh 29.90 in1012.5 mb 0.00 in0.0 mm 0.00 in0.0 mm 0.91 in23.1 mm
09:00 PM 28.6°F-1.9°C 28.3°F-2.1°C 99% 4.5 mph NNW7.2 kmh NNW 13.6 mph21.9 kmh 29.91 in1012.9 mb 0.00 in0.0 mm 0.00 in0.0 mm 0.91 in23.1 mm
09:15 PM 28.4°F-2.0°C 28.2°F-2.1°C 99% 3.8 mph NW6.1 kmh NW 13.6 mph21.9 kmh 29.92 in1013.2 mb 0.00 in0.0 mm 0.00 in0.0 mm 0.91 in23.1 mm
09:30 PM 28.2°F-2.1°C 28.0°F-2.2°C 99% 4.5 mph NNW7.2 kmh NNW 9.8 mph15.8 kmh 29.92 in1013.2 mb 0.00 in0.0 mm 0.00 in0.0 mm 0.91 in23.1 mm
09:45 PM 28.0°F-2.2°C 27.8°F-2.3°C 99% 3.1 mph NW5.0 kmh NW 9.2 mph14.8 kmh 29.93 in1013.5 mb 0.00 in0.0 mm 0.00 in0.0 mm 0.91 in23.1 mm
10:00 PM 28.0°F-2.2°C 27.8°F-2.3°C 99% 2.2 mph NW3.5 kmh NW 8.3 mph13.4 kmh 29.94 in1013.9 mb 0.00 in0.0 mm 0.00 in0.0 mm 0.91 in23.1 mm
10:15 PM 27.9°F-2.3°C 27.6°F-2.4°C 99% 6.0 mph N9.7 kmh N 12.1 mph19.5 kmh 29.95 in1014.2 mb 0.00 in0.0 mm 0.00 in0.0 mm 0.91 in23.1 mm
10:30 PM 27.9°F-2.3°C 27.6°F-2.4°C 99% 4.5 mph NW7.2 kmh NW 16.8 mph27.0 kmh 29.97 in1014.9 mb 0.00 in0.0 mm 0.00 in0.0 mm 0.91 in23.1 mm
10:45 PM 27.7°F-2.4°C 27.5°F-2.5°C 99% 8.3 mph NNW13.4 kmh NNW 17.4 mph28.0 kmh 29.98 in1015.2 mb 0.00 in0.0 mm 0.00 in0.0 mm 0.91 in23.1 mm
11:00 PM 27.5°F-2.5°C 27.3°F-2.6°C 99% 7.6 mph N12.2 kmh N 14.5 mph23.3 kmh 30.00 in1015.9 mb 0.00 in0.0 mm 0.00 in0.0 mm 0.91 in23.1 mm
11:15 PM 27.3°F-2.6°C 27.1°F-2.7°C 99% 6.0 mph NNW9.7 kmh NNW 22.8 mph36.7 kmh 30.02 in1016.6 mb 0.00 in0.0 mm 0.00 in0.0 mm 0.91 in23.1 mm
11:30 PM 27.3°F-2.6°C 27.1°F-2.7°C 99% 4.5 mph NNW7.2 kmh NNW 9.2 mph14.8 kmh 30.04 in1017.3 mb 0.00 in0.0 mm 0.00 in0.0 mm 0.91 in23.1 mm
11:45 PM 27.3°F-2.6°C 27.1°F-2.7°C 99% 5.4 mph NW8.7 kmh NW 9.2 mph14.8 kmh 30.05 in1017.6 mb 0.00 in0.0 mm 0.00 in0.0 mm 0.91 in23.1 mm